Wetterdaten: Woche 29.12.08 - 04.01.09 (KW1)
Datum Zeit Temperatur Luftfeuchte Luftdruck Niederschlag Wind Richtung Sonnenschein Solar Taupunkt Windchill Windben
29.12.2008 00:00 -5.3 C 85 % 1027.8 hPa 0.0 l/m 0.4 km/h (0 Bft) O 0.00 h 0 W/m -7.5 C -5.3 C 1.2 km/h (1 Bft)
29.12.2008 01:00 -5.8 C 87 % 1027.8 hPa 0.0 l/m 1.7 km/h (1 Bft) O 0.00 h 0 W/m -7.7 C -5.8 C 2.8 km/h (1 Bft)
29.12.2008 02:00 -5.9 C 87 % 1027.9 hPa 0.0 l/m 1.4 km/h (1 Bft) O 0.00 h 0 W/m -7.7 C -5.9 C 2.6 km/h (1 Bft)
29.12.2008 03:00 -6.3 C 88 % 1028.1 hPa 0.0 l/m 1.0 km/h (0 Bft) O 0.00 h 0 W/m -8.0 C -6.3 C 2.1 km/h (1 Bft)
29.12.2008 04:00 -6.5 C 89 % 1028.3 hPa 0.0 l/m 0.3 km/h (0 Bft) O 0.00 h 0 W/m -7.9 C -6.5 C 1.0 km/h (0 Bft)
29.12.2008 05:00 -6.0 C 90 % 1028.6 hPa 0.0 l/m 0.5 km/h (0 Bft) O 0.00 h 0 W/m -7.3 C -6.0 C 1.2 km/h (1 Bft)
29.12.2008 06:00 -5.6 C 90 % 1028.6 hPa 0.0 l/m 0.1 km/h (0 Bft) O 0.00 h 0 W/m -7.0 C -5.6 C 0.5 km/h (0 Bft)
29.12.2008 07:00 -5.3 C 90 % 1029.1 hPa 0.0 l/m 0.1 km/h (0 Bft) O 0.00 h 0 W/m -6.7 C -5.3 C 0.9 km/h (0 Bft)
29.12.2008 08:00 -5.1 C 90 % 1029.3 hPa 0.0 l/m 0.1 km/h (0 Bft) O 0.00 h 12 W/m -6.5 C -5.1 C 0.6 km/h (0 Bft)
29.12.2008 09:00 -4.7 C 90 % 1029.8 hPa 0.0 l/m 0.2 km/h (0 Bft) O 0.00 h 39 W/m -6.0 C -4.7 C 1.5 km/h (1 Bft)
29.12.2008 10:00 -3.9 C 89 % 1030.2 hPa 0.0 l/m 0.6 km/h (0 Bft) O 0.00 h 82 W/m -5.5 C -3.9 C 1.8 km/h (1 Bft)
29.12.2008 11:00 -2.8 C 84 % 1030.4 hPa 0.0 l/m 0.0 km/h (0 Bft) O 0.02 h 126 W/m -5.1 C -2.8 C 0.6 km/h (0 Bft)
29.12.2008 12:00 -1.9 C 78 % 1030.3 hPa 0.0 l/m 2.3 km/h (1 Bft) O-SO 0.40 h 172 W/m -5.1 C -2.3 C 4.7 km/h (1 Bft)
29.12.2008 13:00 -1.3 C 76 % 1030.2 hPa 0.0 l/m 4.2 km/h (1 Bft) O-SO 0.97 h 196 W/m -5.0 C -2.5 C 6.8 km/h (2 Bft)
29.12.2008 14:00 -0.7 C 73 % 1029.9 hPa 0.0 l/m 1.4 km/h (1 Bft) O 0.80 h 149 W/m -4.9 C -0.8 C 3.4 km/h (1 Bft)
29.12.2008 15:00 -0.9 C 74 % 1030.3 hPa 0.0 l/m 1.8 km/h (1 Bft) O-SO 0.18 h 69 W/m -4.8 C -1.0 C 3.9 km/h (1 Bft)
29.12.2008 16:00 -1.6 C 77 % 1030.8 hPa 0.0 l/m 2.3 km/h (1 Bft) O-SO 0.07 h 17 W/m -5.0 C -1.7 C 4.3 km/h (1 Bft)
29.12.2008 17:00 -2.5 C 81 % 1031.1 hPa 0.0 l/m 0.2 km/h (0 Bft) O-SO 0.00 h 0 W/m -5.3 C -2.5 C 0.6 km/h (0 Bft)
29.12.2008 18:00 -3.0 C 82 % 1031.2 hPa 0.0 l/m 0.1 km/h (0 Bft) O-SO 0.00 h 0 W/m -5.6 C -3.0 C 0.9 km/h (0 Bft)
29.12.2008 19:00 -3.4 C 84 % 1031.4 hPa 0.0 l/m 0.3 km/h (0 Bft) O-SO 0.00 h 0 W/m -5.8 C -3.4 C 1.3 km/h (1 Bft)
29.12.2008 20:00 -3.8 C 85 % 1031.5 hPa 0.0 l/m 0.6 km/h (0 Bft) NO 0.00 h 0 W/m -6.0 C -3.8 C 2.2 km/h (1 Bft)
29.12.2008 21:00 -4.2 C 86 % 1031.7 hPa 0.0 l/m 0.2 km/h (0 Bft) N-NO 0.00 h 0 W/m -6.2 C -4.2 C 1.0 km/h (0 Bft)
29.12.2008 22:00 -4.1 C 87 % 1032.1 hPa 0.0 l/m 0.9 km/h (0 Bft) N-NO 0.00 h 0 W/m -5.9 C -4.1 C 2.6 km/h (1 Bft)
29.12.2008 23:00 -3.7 C 87 % 1032.1 hPa 0.0 l/m 1.1 km/h (1 Bft) N-NO 0.00 h 0 W/m -5.5 C -3.8 C 3.1 km/h (1 Bft)
30.12.2008 00:00 -3.5 C 86 % 1031.8 hPa 0.0 l/m 0.8 km/h (0 Bft) N-NO 0.00 h 0 W/m -5.5 C -3.5 C 2.5 km/h (1 Bft)
30.12.2008 01:00 -3.5 C 86 % 1031.6 hPa 0.0 l/m 1.4 km/h (1 Bft) N-NO 0.00 h 0 W/m -5.5 C -3.6 C 3.6 km/h (1 Bft)
30.12.2008 02:00 -3.5 C 86 % 1031.6 hPa 0.0 l/m 0.9 km/h (0 Bft) NO 0.00 h 0 W/m -5.5 C -3.5 C 3.0 km/h (1 Bft)
30.12.2008 03:00 -3.5 C 86 % 1031.8 hPa 0.0 l/m 0.9 km/h (0 Bft) N-NO 0.00 h 0 W/m -5.5 C -3.5 C 2.8 km/h (1 Bft)
30.12.2008 04:00 -3.6 C 86 % 1031.8 hPa 0.0 l/m 1.0 km/h (0 Bft) NO 0.00 h 0 W/m -5.6 C -3.6 C 2.6 km/h (1 Bft)
30.12.2008 05:00 -3.7 C 87 % 1032.0 hPa 0.0 l/m 1.7 km/h (1 Bft) O-SO 0.00 h 0 W/m -5.6 C -4.0 C 3.5 km/h (1 Bft)
30.12.2008 06:00 -3.7 C 87 % 1032.3 hPa 0.0 l/m 0.7 km/h (0 Bft) NO 0.00 h 0 W/m -5.5 C -3.7 C 2.2 km/h (1 Bft)
30.12.2008 07:00 -3.7 C 87 % 1032.4 hPa 0.0 l/m 0.8 km/h (0 Bft) N-NO 0.00 h 0 W/m -5.6 C -3.7 C 2.5 km/h (1 Bft)
30.12.2008 08:00 -3.9 C 87 % 1032.4 hPa 0.0 l/m 1.1 km/h (0 Bft) N 0.00 h 7 W/m -5.7 C -3.9 C 3.2 km/h (1 Bft)
30.12.2008 09:00 -3.8 C 87 % 1032.7 hPa 0.0 l/m 0.1 km/h (0 Bft) NO 0.00 h 21 W/m -5.6 C -3.8 C 1.0 km/h (0 Bft)
30.12.2008 10:00 -3.4 C 87 % 1032.9 hPa 0.0 l/m 0.6 km/h (0 Bft) NO 0.00 h 47 W/m -5.3 C -3.4 C 2.5 km/h (1 Bft)
30.12.2008 11:00 -3.1 C 86 % 1032.6 hPa 0.0 l/m 1.7 km/h (1 Bft) N 0.00 h 72 W/m -5.0 C -3.2 C 4.3 km/h (1 Bft)
30.12.2008 12:00 -2.7 C 85 % 1032.1 hPa 0.0 l/m 1.7 km/h (1 Bft) N 0.00 h 90 W/m -4.9 C -3.0 C 3.7 km/h (1 Bft)
30.12.2008 13:00 -2.3 C 84 % 1031.3 hPa 0.0 l/m 1.8 km/h (1 Bft) N-NO 0.00 h 101 W/m -4.6 C -2.5 C 4.1 km/h (1 Bft)
30.12.2008 14:00 -2.0 C 84 % 1031.0 hPa 0.0 l/m 0.9 km/h (0 Bft) NO 0.00 h 86 W/m -4.4 C -2.0 C 2.9 km/h (1 Bft)
30.12.2008 15:00 -1.8 C 83 % 1030.9 hPa 0.0 l/m 0.6 km/h (0 Bft) O-NO 0.00 h 39 W/m -4.3 C -1.8 C 2.0 km/h (1 Bft)
30.12.2008 16:00 -2.0 C 84 % 1031.4 hPa 0.0 l/m 1.1 km/h (1 Bft) W-NW 0.00 h 6 W/m -4.4 C -2.1 C 2.8 km/h (1 Bft)
30.12.2008 17:00 -2.7 C 85 % 1031.8 hPa 0.0 l/m 0.7 km/h (0 Bft) W-NW 0.00 h 0 W/m -4.8 C -2.7 C 1.7 km/h (1 Bft)
30.12.2008 18:00 -3.3 C 87 % 1031.9 hPa 0.0 l/m 0.4 km/h (0 Bft) O-SO 0.00 h 0 W/m -5.2 C -3.3 C 1.3 km/h (1 Bft)
30.12.2008 19:00 -3.5 C 89 % 1032.2 hPa 0.0 l/m 0.7 km/h (0 Bft) O-SO 0.00 h 0 W/m -5.0 C -3.5 C 2.3 km/h (1 Bft)
30.12.2008 20:00 -3.3 C 90 % 1032.0 hPa 0.0 l/m 0.2 km/h (0 Bft) S-SO 0.00 h 0 W/m -4.7 C -3.3 C 1.0 km/h (0 Bft)
30.12.2008 21:00 -3.3 C 90 % 1031.6 hPa 0.0 l/m 0.5 km/h (0 Bft) NO 0.00 h 0 W/m -4.7 C -3.3 C 1.9 km/h (1 Bft)
30.12.2008 22:00 -3.1 C 90 % 1031.7 hPa 0.0 l/m 1.1 km/h (0 Bft) NO 0.00 h 0 W/m -4.5 C -3.2 C 2.9 km/h (1 Bft)
30.12.2008 23:00 -3.3 C 90 % 1031.4 hPa 0.0 l/m 0.8 km/h (0 Bft) O 0.00 h 0 W/m -4.7 C -3.4 C 1.9 km/h (1 Bft)
31.12.2008 00:00 -3.4 C 91 % 1031.2 hPa 0.0 l/m 0.7 km/h (0 Bft) O-SO 0.00 h 0 W/m -4.7 C -3.4 C 1.6 km/h (1 Bft)
31.12.2008 01:00 -3.6 C 91 % 1030.7 hPa 0.0 l/m 0.8 km/h (0 Bft) O 0.00 h 0 W/m -4.9 C -3.7 C 2.0 km/h (1 Bft)
31.12.2008 02:00 -3.8 C 91 % 1029.7 hPa 0.0 l/m 3.9 km/h (1 Bft) O-SO 0.00 h 0 W/m -5.1 C -5.0 C 6.8 km/h (2 Bft)
31.12.2008 03:00 -3.7 C 91 % 1030.1 hPa 0.0 l/m 2.7 km/h (1 Bft) W-SW 0.00 h 0 W/m -4.9 C -4.3 C 4.9 km/h (1 Bft)
31.12.2008 04:00 -3.7 C 91 % 1029.3 hPa 0.0 l/m 1.9 km/h (1 Bft) O-SO 0.00 h 0 W/m -5.0 C -4.1 C 3.7 km/h (1 Bft)
31.12.2008 05:00 -3.8 C 92 % 1029.1 hPa 0.0 l/m 0.8 km/h (0 Bft) S-SW 0.00 h 0 W/m -4.9 C -3.8 C 2.1 km/h (1 Bft)
31.12.2008 06:00 -3.6 C 92 % 1029.3 hPa 0.0 l/m 2.0 km/h (1 Bft) O-SO 0.00 h 0 W/m -4.7 C -4.1 C 3.4 km/h (1 Bft)
31.12.2008 07:00 -3.6 C 92 % 1028.6 hPa 0.0 l/m 2.2 km/h (1 Bft) SO 0.00 h 0 W/m -4.7 C -4.0 C 4.1 km/h (1 Bft)
31.12.2008 08:00 -3.6 C 91 % 1028.7 hPa 0.0 l/m 0.7 km/h (0 Bft) SO 0.05 h 13 W/m -4.8 C -3.6 C 1.6 km/h (1 Bft)
31.12.2008 09:00 -3.2 C 91 % 1028.9 hPa 0.0 l/m 1.0 km/h (0 Bft) SO 0.00 h 28 W/m -4.5 C -3.3 C 2.5 km/h (1 Bft)
31.12.2008 10:00 -2.4 C 89 % 1028.5 hPa 0.0 l/m 3.0 km/h (1 Bft) O-SO 0.37 h 119 W/m -4.0 C -2.9 C 5.4 km/h (1 Bft)
31.12.2008 11:00 -1.5 C 85 % 1028.4 hPa 0.0 l/m 0.8 km/h (0 Bft) S 0.00 h 96 W/m -3.7 C -1.5 C 2.1 km/h (1 Bft)
31.12.2008 12:00 -1.1 C 83 % 1027.9 hPa 0.0 l/m 0.3 km/h (0 Bft) S-SO 0.00 h 73 W/m -3.5 C -1.1 C 1.7 km/h (1 Bft)
31.12.2008 13:00 -0.7 C 83 % 1026.8 hPa 0.4 l/m 1.8 km/h (1 Bft) O-SO 0.00 h 49 W/m -3.1 C -1.0 C 3.7 km/h (1 Bft)
31.12.2008 14:00 -0.6 C 88 % 1026.7 hPa 3.4 l/m 0.5 km/h (0 Bft) NO 0.00 h 11 W/m -2.3 C -0.6 C 1.5 km/h (1 Bft)
31.12.2008 15:00 -0.2 C 92 % 1026.2 hPa 1.6 l/m 1.1 km/h (1 Bft) O-SO 0.00 h 21 W/m -1.4 C -0.3 C 2.3 km/h (1 Bft)
31.12.2008 16:00 -0.1 C 93 % 1025.7 hPa 0.0 l/m 0.2 km/h (0 Bft) O-SO 0.00 h 8 W/m -1.1 C -0.1 C 0.8 km/h (0 Bft)
31.12.2008 17:00 0.1 C 94 % 1025.2 hPa 0.0 l/m 0.1 km/h (0 Bft) O 0.00 h 0 W/m -0.8 C 0.1 C 0.6 km/h (0 Bft)
31.12.2008 18:00 -0.1 C 95 % 1025.3 hPa 0.0 l/m 1.7 km/h (1 Bft) W-SW 0.00 h 0 W/m -0.9 C -0.4 C 3.2 km/h (1 Bft)
31.12.2008 19:00 0.0 C 96 % 1025.0 hPa 2.2 l/m 2.3 km/h (1 Bft) W-SW 0.00 h 0 W/m -0.6 C -0.5 C 3.6 km/h (1 Bft)
31.12.2008 20:00 0.3 C 97 % 1024.7 hPa 2.2 l/m 3.2 km/h (1 Bft) W-SW 0.00 h 0 W/m -0.1 C -0.4 C 5.4 km/h (1 Bft)
31.12.2008 21:00 0.4 C 97 % 1024.6 hPa 0.6 l/m 1.8 km/h (1 Bft) W-SW 0.00 h 0 W/m -0.0 C 0.3 C 3.4 km/h (1 Bft)
31.12.2008 22:00 0.5 C 98 % 1025.1 hPa 0.4 l/m 1.1 km/h (1 Bft) W-SW 0.00 h 0 W/m 0.2 C 0.5 C 2.1 km/h (1 Bft)
31.12.2008 23:00 0.5 C 98 % 1025.3 hPa 0.4 l/m 0.0 km/h (0 Bft) N 0.00 h 0 W/m 0.2 C 0.5 C 0.2 km/h (0 Bft)
01.01.2009 00:00 0.4 C 98 % 1025.3 hPa 0.2 l/m 0.3 km/h (0 Bft) W-SW 0.00 h 0 W/m 0.1 C 0.4 C 0.6 km/h (0 Bft)
01.01.2009 01:00 0.4 C 98 % 1025.6 hPa 0.0 l/m 0.6 km/h (0 Bft) W-SW 0.00 h 0 W/m 0.1 C 0.4 C 1.4 km/h (1 Bft)
01.01.2009 02:00 0.6 C 98 % 1026.1 hPa 0.0 l/m 2.4 km/h (1 Bft) W 0.00 h 0 W/m 0.4 C 0.5 C 4.9 km/h (1 Bft)
01.01.2009 03:00 0.8 C 98 % 1026.8 hPa 0.0 l/m 3.6 km/h (1 Bft) W-NW 0.00 h 0 W/m 0.5 C 0.1 C 6.1 km/h (2 Bft)
01.01.2009 04:00 0.8 C 98 % 1027.3 hPa 0.2 l/m 2.8 km/h (1 Bft) W-SW 0.00 h 0 W/m 0.5 C 0.3 C 5.1 km/h (1 Bft)
01.01.2009 05:00 0.6 C 98 % 1027.4 hPa 0.0 l/m 1.7 km/h (1 Bft) W-SW 0.00 h 0 W/m 0.3 C 0.5 C 3.1 km/h (1 Bft)
01.01.2009 06:00 0.2 C 97 % 1027.7 hPa 0.0 l/m 2.4 km/h (1 Bft) S 0.00 h 0 W/m -0.2 C -0.1 C 4.4 km/h (1 Bft)
01.01.2009 07:00 0.4 C 97 % 1028.2 hPa 0.0 l/m 2.7 km/h (1 Bft) S 0.00 h 0 W/m -0.0 C 0.1 C 5.0 km/h (1 Bft)
01.01.2009 08:00 -0.1 C 97 % 1028.5 hPa 0.0 l/m 1.3 km/h (1 Bft) O-SO 0.13 h 14 W/m -0.6 C -0.3 C 2.2 km/h (1 Bft)
01.01.2009 09:00 -0.8 C 96 % 1028.8 hPa 0.0 l/m 3.7 km/h (1 Bft) O-SO 0.12 h 54 W/m -1.3 C -1.5 C 5.5 km/h (1 Bft)
01.01.2009 10:00 0.1 C 95 % 1029.0 hPa 0.0 l/m 1.8 km/h (1 Bft) O-SO 0.50 h 124 W/m -0.6 C -0.1 C 3.2 km/h (1 Bft)
01.01.2009 11:00 1.0 C 91 % 1028.7 hPa 0.0 l/m 0.5 km/h (0 Bft) O-SO 0.70 h 213 W/m -0.2 C 1.0 C 1.4 km/h (1 Bft)
01.01.2009 12:00 1.5 C 89 % 1027.9 hPa 0.0 l/m 1.4 km/h (1 Bft) N 0.45 h 217 W/m -0.1 C 1.4 C 3.4 km/h (1 Bft)
01.01.2009 13:00 1.4 C 88 % 1027.4 hPa 0.0 l/m 0.4 km/h (0 Bft) O-NO 0.15 h 138 W/m -0.4 C 1.4 C 1.6 km/h (1 Bft)
01.01.2009 14:00 1.2 C 89 % 1026.9 hPa 0.0 l/m 1.2 km/h (1 Bft) O-SO 0.18 h 102 W/m -0.5 C 1.1 C 2.6 km/h (1 Bft)
01.01.2009 15:00 0.8 C 90 % 1026.8 hPa 0.0 l/m 2.5 km/h (1 Bft) O-SO 0.35 h 78 W/m -0.6 C 0.4 C 4.5 km/h (1 Bft)
01.01.2009 16:00 0.4 C 92 % 1026.8 hPa 0.0 l/m 0.7 km/h (0 Bft) O-SO 0.00 h 14 W/m -0.7 C 0.4 C 1.7 km/h (1 Bft)
01.01.2009 17:00 0.3 C 93 % 1026.9 hPa 0.0 l/m 1.4 km/h (1 Bft) O 0.00 h 0 W/m -0.7 C 0.1 C 3.0 km/h (1 Bft)
01.01.2009 18:00 0.7 C 91 % 1026.7 hPa 0.0 l/m 1.5 km/h (1 Bft) O-SO 0.00 h 0 W/m -0.6 C 0.5 C 3.6 km/h (1 Bft)
01.01.2009 19:00 0.8 C 90 % 1026.7 hPa 0.0 l/m 0.2 km/h (0 Bft) NO 0.00 h 0 W/m -0.6 C 0.8 C 1.2 km/h (1 Bft)
01.01.2009 20:00 0.7 C 90 % 1026.8 hPa 0.0 l/m 1.6 km/h (1 Bft) N-NO 0.00 h 0 W/m -0.7 C 0.7 C 3.5 km/h (1 Bft)
01.01.2009 21:00 0.4 C 90 % 1026.6 hPa 0.0 l/m 1.2 km/h (1 Bft) N-NO 0.00 h 0 W/m -1.0 C 0.4 C 3.0 km/h (1 Bft)
01.01.2009 22:00 0.3 C 90 % 1026.0 hPa 0.0 l/m 0.1 km/h (0 Bft) O 0.00 h 0 W/m -1.1 C 0.3 C 0.5 km/h (0 Bft)
01.01.2009 23:00 0.2 C 90 % 1025.7 hPa 0.0 l/m 0.1 km/h (0 Bft) O 0.00 h 0 W/m -1.2 C 0.2 C 0.6 km/h (0 Bft)
02.01.2009 00:00 0.2 C 90 % 1025.3 hPa 0.0 l/m 0.0 km/h (0 Bft) N 0.00 h 0 W/m -1.2 C 0.2 C 0.1 km/h (0 Bft)
02.01.2009 01:00 0.2 C 90 % 1024.8 hPa 0.0 l/m 0.3 km/h (0 Bft) O 0.00 h 0 W/m -1.2 C 0.2 C 0.6 km/h (0 Bft)
02.01.2009 02:00 0.1 C 91 % 1024.6 hPa 0.0 l/m 1.3 km/h (1 Bft) O 0.00 h 0 W/m -1.1 C 0.0 C 2.7 km/h (1 Bft)
02.01.2009 03:00 -0.0 C 91 % 1024.6 hPa 0.0 l/m 5.3 km/h (1 Bft) O-SO 0.00 h 0 W/m -1.3 C -1.4 C 7.5 km/h (2 Bft)
02.01.2009 04:00 -0.2 C 90 % 1024.5 hPa 0.0 l/m 4.2 km/h (1 Bft) O-SO 0.00 h 0 W/m -1.6 C -1.1 C 6.5 km/h (2 Bft)
02.01.2009 05:00 -0.4 C 90 % 1024.1 hPa 0.0 l/m 2.3 km/h (1 Bft) O-SO 0.00 h 0 W/m -1.8 C -0.5 C 4.0 km/h (1 Bft)
02.01.2009 06:00 -0.4 C 90 % 1024.1 hPa 0.0 l/m 2.3 km/h (1 Bft) O-SO 0.00 h 0 W/m -1.8 C -0.6 C 3.8 km/h (1 Bft)
02.01.2009 07:00 -0.5 C 90 % 1024.1 hPa 0.0 l/m 3.4 km/h (1 Bft) O-SO 0.00 h 0 W/m -2.0 C -1.2 C 5.3 km/h (1 Bft)
02.01.2009 08:00 -0.6 C 89 % 1024.2 hPa 0.0 l/m 3.0 km/h (1 Bft) SO 0.00 h 6 W/m -2.2 C -1.0 C 4.8 km/h (1 Bft)
02.01.2009 09:00 -0.4 C 88 % 1024.3 hPa 0.0 l/m 2.3 km/h (1 Bft) SO 0.00 h 19 W/m -2.1 C -1.0 C 3.9 km/h (1 Bft)
02.01.2009 10:00 -0.2 C 89 % 1024.6 hPa 0.0 l/m 0.2 km/h (0 Bft) SO 0.00 h 35 W/m -1.8 C -0.2 C 0.7 km/h (0 Bft)
02.01.2009 11:00 0.1 C 88 % 1024.5 hPa 0.0 l/m 0.2 km/h (0 Bft) SO 0.00 h 45 W/m -1.7 C 0.1 C 0.5 km/h (0 Bft)
02.01.2009 12:00 0.3 C 87 % 1024.0 hPa 0.0 l/m 0.4 km/h (0 Bft) SO 0.00 h 50 W/m -1.7 C 0.3 C 1.1 km/h (1 Bft)
02.01.2009 13:00 0.4 C 86 % 1023.7 hPa 0.0 l/m 0.0 km/h (0 Bft) SO 0.00 h 42 W/m -1.7 C 0.4 C 0.4 km/h (0 Bft)
02.01.2009 14:00 0.4 C 86 % 1023.6 hPa 0.0 l/m 0.3 km/h (0 Bft) SO 0.00 h 28 W/m -1.7 C 0.4 C 1.0 km/h (0 Bft)
02.01.2009 15:00 0.2 C 87 % 1023.8 hPa 0.0 l/m 0.5 km/h (0 Bft) NO 0.00 h 11 W/m -1.6 C 0.2 C 1.4 km/h (1 Bft)
02.01.2009 16:00 -0.1 C 88 % 1024.1 hPa 0.0 l/m 1.1 km/h (1 Bft) N-NO 0.00 h 5 W/m -1.8 C -0.1 C 3.4 km/h (1 Bft)
02.01.2009 17:00 -0.5 C 88 % 1024.2 hPa 0.0 l/m 2.7 km/h (1 Bft) O 0.00 h 0 W/m -2.2 C -1.0 C 5.6 km/h (1 Bft)
02.01.2009 18:00 -0.8 C 85 % 1024.6 hPa 0.0 l/m 3.1 km/h (1 Bft) O-SO 0.00 h 0 W/m -3.1 C -1.4 C 5.8 km/h (2 Bft)
02.01.2009 19:00 -1.0 C 83 % 1024.9 hPa 0.0 l/m 3.3 km/h (1 Bft) O 0.00 h 0 W/m -3.5 C -1.6 C 6.5 km/h (2 Bft)
02.01.2009 20:00 -1.6 C 79 % 1025.4 hPa 0.0 l/m 3.5 km/h (1 Bft) O-SO 0.00 h 0 W/m -4.7 C -2.3 C 7.9 km/h (2 Bft)
02.01.2009 21:00 -2.2 C 77 % 1025.6 hPa 0.0 l/m 3.8 km/h (1 Bft) O 0.00 h 0 W/m -5.7 C -3.1 C 8.4 km/h (2 Bft)
02.01.2009 22:00 -2.5 C 76 % 1025.7 hPa 0.0 l/m 4.0 km/h (1 Bft) O-SO 0.00 h 0 W/m -6.1 C -3.6 C 8.7 km/h (2 Bft)
02.01.2009 23:00 -2.7 C 76 % 1025.7 hPa 0.0 l/m 3.0 km/h (1 Bft) O 0.00 h 0 W/m -6.3 C -3.1 C 6.4 km/h (2 Bft)
03.01.2009 00:00 -2.8 C 76 % 1025.4 hPa 0.0 l/m 3.0 km/h (1 Bft) NO 0.00 h 0 W/m -6.5 C -3.4 C 6.6 km/h (2 Bft)
03.01.2009 01:00 -3.0 C 74 % 1025.1 hPa 0.0 l/m 3.8 km/h (1 Bft) O 0.00 h 0 W/m -6.9 C -3.9 C 7.7 km/h (2 Bft)
03.01.2009 02:00 -3.3 C 76 % 1025.2 hPa 0.0 l/m 4.0 km/h (1 Bft) O-SO 0.00 h 0 W/m -6.9 C -4.4 C 8.8 km/h (2 Bft)
03.01.2009 03:00 -3.3 C 76 % 1025.0 hPa 0.0 l/m 3.8 km/h (1 Bft) O 0.00 h 0 W/m -6.9 C -4.4 C 8.2 km/h (2 Bft)
03.01.2009 04:00 -3.3 C 76 % 1024.8 hPa 0.0 l/m 4.2 km/h (1 Bft) NO 0.00 h 0 W/m -6.9 C -4.4 C 8.0 km/h (2 Bft)
03.01.2009 05:00 -3.4 C 76 % 1024.6 hPa 0.0 l/m 2.1 km/h (1 Bft) N-NO 0.00 h 0 W/m -7.1 C -3.9 C 5.2 km/h (1 Bft)
03.01.2009 06:00 -3.5 C 75 % 1024.5 hPa 0.0 l/m 3.3 km/h (1 Bft) N-NO 0.00 h 0 W/m -7.3 C -4.4 C 7.6 km/h (2 Bft)
03.01.2009 07:00 -3.7 C 76 % 1024.7 hPa 0.0 l/m 3.1 km/h (1 Bft) N 0.00 h 0 W/m -7.4 C -4.4 C 6.9 km/h (2 Bft)
03.01.2009 08:00 -4.0 C 76 % 1025.0 hPa 0.0 l/m 3.2 km/h (1 Bft) N-NO 0.00 h 11 W/m -7.5 C -4.6 C 7.2 km/h (2 Bft)
03.01.2009 09:00 -4.0 C 76 % 1025.2 hPa 0.0 l/m 1.7 km/h (1 Bft) N 0.00 h 44 W/m -7.6 C -4.2 C 4.2 km/h (1 Bft)
03.01.2009 10:00 -3.8 C 76 % 1025.3 hPa 0.0 l/m 2.9 km/h (1 Bft) O 0.00 h 73 W/m -7.5 C -4.4 C 6.5 km/h (2 Bft)
03.01.2009 11:00 -3.7 C 75 % 1025.3 hPa 0.0 l/m 3.7 km/h (1 Bft) N-NO 0.00 h 95 W/m -7.5 C -4.6 C 7.8 km/h (2 Bft)
03.01.2009 12:00 -3.6 C 73 % 1024.8 hPa 0.0 l/m 4.7 km/h (1 Bft) O-SO 0.00 h 103 W/m -7.6 C -5.1 C 9.7 km/h (2 Bft)
03.01.2009 13:00 -3.7 C 74 % 1024.6 hPa 0.0 l/m 7.2 km/h (2 Bft) O-SO 0.00 h 111 W/m -7.6 C -6.5 C 11.6 km/h (2 Bft)
03.01.2009 14:00 -3.6 C 75 % 1024.2 hPa 0.0 l/m 5.0 km/h (1 Bft) O-SO 0.00 h 82 W/m -7.3 C -5.2 C 8.5 km/h (2 Bft)
03.01.2009 15:00 -3.6 C 76 % 1024.3 hPa 0.0 l/m 3.6 km/h (1 Bft) SO 0.00 h 40 W/m -7.3 C -4.6 C 6.7 km/h (2 Bft)
03.01.2009 16:00 -3.7 C 76 % 1024.8 hPa 0.0 l/m 3.4 km/h (1 Bft) O-SO 0.00 h 11 W/m -7.3 C -4.5 C 5.9 km/h (2 Bft)
03.01.2009 17:00 -3.7 C 77 % 1024.9 hPa 0.0 l/m 0.7 km/h (0 Bft) O 0.00 h 0 W/m -7.1 C -3.7 C 1.9 km/h (1 Bft)
03.01.2009 18:00 -3.7 C 79 % 1024.9 hPa 0.0 l/m 0.1 km/h (0 Bft) O 0.00 h 0 W/m -6.9 C -3.7 C 0.3 km/h (0 Bft)
03.01.2009 19:00 -3.8 C 80 % 1025.1 hPa 0.0 l/m 0.2 km/h (0 Bft) O 0.00 h 0 W/m -6.7 C -3.8 C 0.9 km/h (0 Bft)
03.01.2009 20:00 -3.7 C 80 % 1025.3 hPa 0.0 l/m 0.1 km/h (0 Bft) O 0.00 h 0 W/m -6.7 C -3.7 C 0.7 km/h (0 Bft)
03.01.2009 21:00 -3.7 C 81 % 1025.4 hPa 0.0 l/m 0.1 km/h (0 Bft) O 0.00 h 0 W/m -6.5 C -3.7 C 0.3 km/h (0 Bft)
03.01.2009 22:00 -3.6 C 81 % 1025.3 hPa 0.0 l/m 0.6 km/h (0 Bft) O 0.00 h 0 W/m -6.3 C -3.6 C 1.5 km/h (1 Bft)
03.01.2009 23:00 -3.4 C 80 % 1025.2 hPa 0.0 l/m 0.2 km/h (0 Bft) O 0.00 h 0 W/m -6.4 C -3.4 C 0.8 km/h (0 Bft)
04.01.2009 00:00 -3.4 C 78 % 1025.1 hPa 0.0 l/m 0.5 km/h (0 Bft) O 0.00 h 0 W/m -6.7 C -3.4 C 2.0 km/h (1 Bft)
04.01.2009 01:00 -3.4 C 75 % 1024.7 hPa 0.0 l/m 0.8 km/h (0 Bft) O 0.00 h 0 W/m -7.1 C -3.4 C 2.8 km/h (1 Bft)
04.01.2009 02:00 -3.5 C 76 % 1024.2 hPa 0.0 l/m 0.4 km/h (0 Bft) O-SO 0.00 h 0 W/m -7.1 C -3.5 C 1.2 km/h (1 Bft)
04.01.2009 03:00 -3.6 C 76 % 1024.1 hPa 0.0 l/m 0.6 km/h (0 Bft) O-SO 0.00 h 0 W/m -7.2 C -3.7 C 1.4 km/h (1 Bft)
04.01.2009 04:00 -3.7 C 76 % 1024.1 hPa 0.0 l/m 0.8 km/h (0 Bft) O-SO 0.00 h 0 W/m -7.3 C -3.8 C 2.2 km/h (1 Bft)
04.01.2009 05:00 -3.8 C 76 % 1023.8 hPa 0.0 l/m 3.4 km/h (1 Bft) SO 0.00 h 0 W/m -7.3 C -4.7 C 6.1 km/h (2 Bft)
04.01.2009 06:00 -4.2 C 77 % 1023.7 hPa 0.0 l/m 2.3 km/h (1 Bft) SO 0.00 h 0 W/m -7.6 C -4.6 C 4.1 km/h (1 Bft)
04.01.2009 07:00 -4.2 C 77 % 1023.9 hPa 0.0 l/m 1.6 km/h (1 Bft) SO 0.00 h 0 W/m -7.7 C -4.4 C 3.3 km/h (1 Bft)
04.01.2009 08:00 -4.4 C 77 % 1024.1 hPa 0.0 l/m 0.5 km/h (0 Bft) SO 0.00 h 12 W/m -7.8 C -4.4 C 1.8 km/h (1 Bft)
04.01.2009 09:00 -4.2 C 77 % 1024.2 hPa 0.0 l/m 0.5 km/h (0 Bft) SO 0.00 h 49 W/m -7.5 C -4.2 C 1.8 km/h (1 Bft)
04.01.2009 10:00 -3.7 C 78 % 1023.8 hPa 0.0 l/m 1.2 km/h (1 Bft) W-SW 0.00 h 71 W/m -7.0 C -3.7 C 3.0 km/h (1 Bft)
04.01.2009 11:00 -3.6 C 79 % 1023.4 hPa 0.0 l/m 1.8 km/h (1 Bft) S 0.00 h 99 W/m -6.8 C -3.8 C 3.9 km/h (1 Bft)
04.01.2009 12:00 -3.6 C 79 % 1022.7 hPa 0.0 l/m 2.3 km/h (1 Bft) S-SO 0.00 h 116 W/m -6.6 C -4.0 C 4.4 km/h (1 Bft)
04.01.2009 13:00 -3.7 C 79 % 1021.9 hPa 0.0 l/m 2.2 km/h (1 Bft) S-SW 0.00 h 133 W/m -6.8 C -3.8 C 4.4 km/h (1 Bft)
04.01.2009 14:00 -3.6 C 79 % 1021.2 hPa 0.0 l/m 2.5 km/h (1 Bft) S-SO 0.08 h 119 W/m -6.7 C -3.8 C 5.3 km/h (1 Bft)
04.01.2009 15:00 -3.6 C 79 % 1021.0 hPa 0.0 l/m 2.2 km/h (1 Bft) S-SO 0.37 h 78 W/m -6.6 C -3.7 C 4.8 km/h (1 Bft)
04.01.2009 16:00 -3.9 C 80 % 1021.0 hPa 0.0 l/m 1.4 km/h (1 Bft) S 0.00 h 16 W/m -6.8 C -3.9 C 3.1 km/h (1 Bft)
04.01.2009 17:00 -4.4 C 82 % 1021.1 hPa 0.0 l/m 1.1 km/h (1 Bft) S-SO 0.00 h 0 W/m -6.9 C -4.4 C 3.3 km/h (1 Bft)
04.01.2009 18:00 -5.0 C 84 % 1021.1 hPa 0.0 l/m 1.4 km/h (1 Bft) S-SO 0.00 h 0 W/m -7.3 C -5.0 C 3.1 km/h (1 Bft)
04.01.2009 19:00 -5.6 C 87 % 1021.2 hPa 0.0 l/m 3.5 km/h (1 Bft) S-SO 0.00 h 0 W/m -7.5 C -6.0 C 5.5 km/h (1 Bft)
04.01.2009 20:00 -5.9 C 88 % 1021.2 hPa 0.0 l/m 1.4 km/h (1 Bft) SO 0.00 h 0 W/m -7.5 C -5.9 C 3.2 km/h (1 Bft)
04.01.2009 21:00 -5.8 C 89 % 1021.1 hPa 0.0 l/m 0.5 km/h (0 Bft) S-SO 0.00 h 0 W/m -7.4 C -5.8 C 2.1 km/h (1 Bft)
04.01.2009 22:00 -5.6 C 90 % 1020.9 hPa 0.0 l/m 0.1 km/h (0 Bft) S-SO 0.00 h 0 W/m -7.0 C -5.6 C 0.7 km/h (0 Bft)
04.01.2009 23:00 -5.4 C 90 % 1020.5 hPa 0.0 l/m 0.8 km/h (0 Bft) SW 0.00 h 0 W/m -6.8 C -5.4 C 2.5 km/h (1 Bft)
Min-Datum _ 29.12.08 29.12.08 04.01.09 - 29.12.08 - - - 29.12.08 03.01.09 29.12.08
_ Min-Zeit 04:31 14:06 23:45 - 00:00 - - - 03:14 13:22 00:01
Minimum _ -6.6 C 72 % 1020.3 hPa - 0.0 km/h (0 Bft) - - - -8.2 C -9.1 C 0.0 km/h (0 Bft)
Max-Datum _ 01.01.09 01.01.09 30.12.08 31.12.08 03.01.09 - 29.12.08 01.01.09 01.01.09 01.01.09 02.01.09
_ Max-Zeit 12:38 02:30 09:30 14:01 13:22 - 11:51 12:40 02:48 12:38 21:36
Maximum _ 1.8 C 99 % 1032.9 hPa 3.4 l/m 15.6 km/h
O-SO (3 Bft)
- 0.02 h 380 W/m 0.7 C 1.8 C 24.3 km/h
O (4 Bft)
Durchschnitt _ -2.4 C 86 % 1026.9 hPa #11.6 l/m 1.6 km/h (1 Bft) O-SO #5:53 h 67 W/m -4.5 C -2.6 C 3.3 km/h (1 Bft)
© Kaiko 2009